sensor_id;sensor_type;location;lat;lon;timestamp;temperature;humidity
70271;SHT31;57680;54.292;18.598;2022-12-10T00:01:05;-1.77;87.43
70271;SHT31;57680;54.292;18.598;2022-12-10T00:03:30;-1.75;87.19
70271;SHT31;57680;54.292;18.598;2022-12-10T00:06:00;-1.78;87.40
70271;SHT31;57680;54.292;18.598;2022-12-10T00:08:26;-1.73;86.46
70271;SHT31;57680;54.292;18.598;2022-12-10T00:10:51;-1.56;85.39
70271;SHT31;57680;54.292;18.598;2022-12-10T00:13:17;-1.46;84.26
70271;SHT31;57680;54.292;18.598;2022-12-10T00:15:42;-1.42;83.81
70271;SHT31;57680;54.292;18.598;2022-12-10T00:18:08;-1.36;83.91
70271;SHT31;57680;54.292;18.598;2022-12-10T00:20:36;-1.35;83.25
70271;SHT31;57680;54.292;18.598;2022-12-10T00:23:02;-1.38;83.04
70271;SHT31;57680;54.292;18.598;2022-12-10T00:25:27;-1.38;83.33
70271;SHT31;57680;54.292;18.598;2022-12-10T00:27:53;-1.42;83.53
70271;SHT31;57680;54.292;18.598;2022-12-10T00:30:18;-1.39;83.66
70271;SHT31;57680;54.292;18.598;2022-12-10T00:32:43;-1.46;82.93
70271;SHT31;57680;54.292;18.598;2022-12-10T00:35:09;-1.43;83.76
70271;SHT31;57680;54.292;18.598;2022-12-10T00:37:35;-1.57;86.16
70271;SHT31;57680;54.292;18.598;2022-12-10T00:40:00;-1.71;86.47
70271;SHT31;57680;54.292;18.598;2022-12-10T00:42:26;-1.81;86.48
70271;SHT31;57680;54.292;18.598;2022-12-10T00:44:51;-1.84;86.48
70271;SHT31;57680;54.292;18.598;2022-12-10T00:47:17;-1.78;86.33
70271;SHT31;57680;54.292;18.598;2022-12-10T00:49:42;-1.74;86.05
70271;SHT31;57680;54.292;18.598;2022-12-10T00:52:08;-1.73;86.17
70271;SHT31;57680;54.292;18.598;2022-12-10T00:54:33;-1.78;86.39
70271;SHT31;57680;54.292;18.598;2022-12-10T00:56:59;-1.82;86.14
70271;SHT31;57680;54.292;18.598;2022-12-10T00:59:24;-1.75;85.72
70271;SHT31;57680;54.292;18.598;2022-12-10T01:01:50;-1.71;85.34
70271;SHT31;57680;54.292;18.598;2022-12-10T01:04:16;-1.64;84.62
70271;SHT31;57680;54.292;18.598;2022-12-10T01:06:48;-1.47;82.35
70271;SHT31;57680;54.292;18.598;2022-12-10T01:09:17;-1.38;81.82
70271;SHT31;57680;54.292;18.598;2022-12-10T01:11:45;-1.26;81.45
70271;SHT31;57680;54.292;18.598;2022-12-10T01:14:15;-1.26;82.35
70271;SHT31;57680;54.292;18.598;2022-12-10T01:16:42;-1.25;81.96
70271;SHT31;57680;54.292;18.598;2022-12-10T01:19:08;-1.30;83.95
70271;SHT31;57680;54.292;18.598;2022-12-10T01:21:34;-1.47;84.51
70271;SHT31;57680;54.292;18.598;2022-12-10T01:24:00;-1.63;84.91
70271;SHT31;57680;54.292;18.598;2022-12-10T01:26:31;-1.75;85.10
70271;SHT31;57680;54.292;18.598;2022-12-10T01:28:58;-1.90;85.34
70271;SHT31;57680;54.292;18.598;2022-12-10T01:31:26;-1.99;85.56
70271;SHT31;57680;54.292;18.598;2022-12-10T01:33:52;-2.09;85.40
70271;SHT31;57680;54.292;18.598;2022-12-10T01:36:24;-2.19;85.87
70271;SHT31;57680;54.292;18.598;2022-12-10T01:38:51;-2.18;86.52
70271;SHT31;57680;54.292;18.598;2022-12-10T01:41:29;-2.15;86.04
70271;SHT31;57680;54.292;18.598;2022-12-10T01:44:00;-2.02;85.68
70271;SHT31;57680;54.292;18.598;2022-12-10T01:46:31;-1.87;86.55
70271;SHT31;57680;54.292;18.598;2022-12-10T01:48:59;-1.81;84.89
70271;SHT31;57680;54.292;18.598;2022-12-10T01:51:29;-1.80;84.40
70271;SHT31;57680;54.292;18.598;2022-12-10T01:53:56;-1.88;85.11
70271;SHT31;57680;54.292;18.598;2022-12-10T01:56:22;-1.97;85.79
70271;SHT31;57680;54.292;18.598;2022-12-10T01:58:55;-2.04;86.14
70271;SHT31;57680;54.292;18.598;2022-12-10T02:01:48;-2.04;86.31
70271;SHT31;57680;54.292;18.598;2022-12-10T02:09:44;-2.05;86.75
70271;SHT31;57680;54.292;18.598;2022-12-10T02:12:18;-2.09;86.98
70271;SHT31;57680;54.292;18.598;2022-12-10T02:17:19;-2.23;87.46
70271;SHT31;57680;54.292;18.598;2022-12-10T02:22:31;-2.23;87.88
70271;SHT31;57680;54.292;18.598;2022-12-10T02:24:58;-2.21;87.67
70271;SHT31;57680;54.292;18.598;2022-12-10T02:30:16;-2.09;87.28
70271;SHT31;57680;54.292;18.598;2022-12-10T02:32:43;-2.05;86.93
70271;SHT31;57680;54.292;18.598;2022-12-10T02:35:23;-1.94;86.84
70271;SHT31;57680;54.292;18.598;2022-12-10T02:38:01;-1.88;86.72
70271;SHT31;57680;54.292;18.598;2022-12-10T02:40:31;-1.94;87.02
70271;SHT31;57680;54.292;18.598;2022-12-10T02:42:58;-2.02;87.15
70271;SHT31;57680;54.292;18.598;2022-12-10T02:45:26;-2.09;87.52
70271;SHT31;57680;54.292;18.598;2022-12-10T02:47:59;-2.09;87.57
70271;SHT31;57680;54.292;18.598;2022-12-10T02:50:25;-2.13;87.48
70271;SHT31;57680;54.292;18.598;2022-12-10T02:52:51;-2.11;87.52
70271;SHT31;57680;54.292;18.598;2022-12-10T02:55:17;-2.11;88.05
70271;SHT31;57680;54.292;18.598;2022-12-10T02:58:10;-2.04;88.42
70271;SHT31;57680;54.292;18.598;2022-12-10T03:01:02;-1.94;88.53
70271;SHT31;57680;54.292;18.598;2022-12-10T03:03:38;-1.94;88.77
70271;SHT31;57680;54.292;18.598;2022-12-10T03:06:32;-1.88;88.17
70271;SHT31;57680;54.292;18.598;2022-12-10T03:09:30;-1.85;87.94
70271;SHT31;57680;54.292;18.598;2022-12-10T03:11:59;-1.75;87.61
70271;SHT31;57680;54.292;18.598;2022-12-10T03:14:31;-1.80;87.74
70271;SHT31;57680;54.292;18.598;2022-12-10T03:16:59;-1.84;88.08
70271;SHT31;57680;54.292;18.598;2022-12-10T03:19:51;-1.84;87.86
70271;SHT31;57680;54.292;18.598;2022-12-10T03:22:18;-1.81;88.06
70271;SHT31;57680;54.292;18.598;2022-12-10T03:24:45;-1.77;87.98
70271;SHT31;57680;54.292;18.598;2022-12-10T03:27:12;-1.75;87.87
70271;SHT31;57680;54.292;18.598;2022-12-10T03:29:53;-1.75;87.92
70271;SHT31;57680;54.292;18.598;2022-12-10T03:32:22;-1.73;87.85
70271;SHT31;57680;54.292;18.598;2022-12-10T03:34:49;-1.75;87.95
70271;SHT31;57680;54.292;18.598;2022-12-10T03:37:16;-1.78;88.20
70271;SHT31;57680;54.292;18.598;2022-12-10T03:39:43;-1.80;88.59
70271;SHT31;57680;54.292;18.598;2022-12-10T03:42:12;-1.82;88.62
70271;SHT31;57680;54.292;18.598;2022-12-10T03:44:39;-1.82;88.48
70271;SHT31;57680;54.292;18.598;2022-12-10T03:47:10;-1.82;88.39
70271;SHT31;57680;54.292;18.598;2022-12-10T03:49:37;-1.82;88.32
70271;SHT31;57680;54.292;18.598;2022-12-10T03:52:03;-1.81;88.12
70271;SHT31;57680;54.292;18.598;2022-12-10T03:54:29;-1.84;87.78
70271;SHT31;57680;54.292;18.598;2022-12-10T03:56:54;-1.81;87.75
70271;SHT31;57680;54.292;18.598;2022-12-10T03:59:20;-1.85;87.80
70271;SHT31;57680;54.292;18.598;2022-12-10T04:01:46;-1.87;87.48
70271;SHT31;57680;54.292;18.598;2022-12-10T04:04:11;-1.95;86.66
70271;SHT31;57680;54.292;18.598;2022-12-10T04:06:38;-1.92;87.48
70271;SHT31;57680;54.292;18.598;2022-12-10T04:09:04;-1.95;87.81
70271;SHT31;57680;54.292;18.598;2022-12-10T04:11:29;-1.97;87.40
70271;SHT31;57680;54.292;18.598;2022-12-10T04:13:55;-1.94;87.41
70271;SHT31;57680;54.292;18.598;2022-12-10T04:16:39;-1.95;87.41
70271;SHT31;57680;54.292;18.598;2022-12-10T04:19:08;-1.97;88.22
70271;SHT31;57680;54.292;18.598;2022-12-10T04:21:35;-1.95;88.19
70271;SHT31;57680;54.292;18.598;2022-12-10T04:24:21;-1.82;89.22
70271;SHT31;57680;54.292;18.598;2022-12-10T04:27:12;-1.85;87.66
70271;SHT31;57680;54.292;18.598;2022-12-10T04:29:39;-1.94;86.90
70271;SHT31;57680;54.292;18.598;2022-12-10T04:32:05;-1.90;87.51
70271;SHT31;57680;54.292;18.598;2022-12-10T04:34:31;-1.88;87.46
70271;SHT31;57680;54.292;18.598;2022-12-10T04:36:58;-1.85;87.28
70271;SHT31;57680;54.292;18.598;2022-12-10T04:39:23;-1.81;87.10
70271;SHT31;57680;54.292;18.598;2022-12-10T04:41:49;-1.80;86.12
70271;SHT31;57680;54.292;18.598;2022-12-10T04:44:15;-1.77;85.97
70271;SHT31;57680;54.292;18.598;2022-12-10T04:46:41;-1.84;87.31
70271;SHT31;57680;54.292;18.598;2022-12-10T04:49:07;-1.84;87.99
70271;SHT31;57680;54.292;18.598;2022-12-10T04:51:33;-1.84;88.07
70271;SHT31;57680;54.292;18.598;2022-12-10T04:53:59;-1.88;88.21
70271;SHT31;57680;54.292;18.598;2022-12-10T04:56:25;-1.97;88.16
70271;SHT31;57680;54.292;18.598;2022-12-10T04:58:51;-1.92;88.36
70271;SHT31;57680;54.292;18.598;2022-12-10T05:01:16;-1.90;88.65
70271;SHT31;57680;54.292;18.598;2022-12-10T05:03:43;-1.88;88.64
70271;SHT31;57680;54.292;18.598;2022-12-10T05:06:12;-1.87;88.64
70271;SHT31;57680;54.292;18.598;2022-12-10T05:08:38;-1.82;88.68
70271;SHT31;57680;54.292;18.598;2022-12-10T05:11:06;-1.84;88.78
70271;SHT31;57680;54.292;18.598;2022-12-10T05:13:33;-1.82;88.73
70271;SHT31;57680;54.292;18.598;2022-12-10T05:16:01;-1.82;88.85
70271;SHT31;57680;54.292;18.598;2022-12-10T05:18:26;-1.84;88.90
70271;SHT31;57680;54.292;18.598;2022-12-10T05:20:52;-1.82;89.21
70271;SHT31;57680;54.292;18.598;2022-12-10T05:23:18;-1.82;89.21
70271;SHT31;57680;54.292;18.598;2022-12-10T05:26:03;-1.82;88.98
70271;SHT31;57680;54.292;18.598;2022-12-10T05:28:37;-1.82;88.85
70271;SHT31;57680;54.292;18.598;2022-12-10T05:31:03;-1.84;88.88
70271;SHT31;57680;54.292;18.598;2022-12-10T05:33:28;-1.88;88.88
70271;SHT31;57680;54.292;18.598;2022-12-10T05:36:02;-1.91;89.31
70271;SHT31;57680;54.292;18.598;2022-12-10T05:38:30;-1.94;89.14
70271;SHT31;57680;54.292;18.598;2022-12-10T05:41:03;-2.05;88.96
70271;SHT31;57680;54.292;18.598;2022-12-10T05:43:28;-2.11;89.10
70271;SHT31;57680;54.292;18.598;2022-12-10T05:45:59;-2.16;89.08
70271;SHT31;57680;54.292;18.598;2022-12-10T05:48:24;-2.16;89.30
70271;SHT31;57680;54.292;18.598;2022-12-10T05:50:50;-2.22;89.40
70271;SHT31;57680;54.292;18.598;2022-12-10T05:53:15;-2.29;89.96
70271;SHT31;57680;54.292;18.598;2022-12-10T05:55:43;-2.26;90.05
70271;SHT31;57680;54.292;18.598;2022-12-10T05:58:08;-2.25;89.94
70271;SHT31;57680;54.292;18.598;2022-12-10T06:00:34;-2.26;90.21
70271;SHT31;57680;54.292;18.598;2022-12-10T06:02:59;-2.22;90.29
70271;SHT31;57680;54.292;18.598;2022-12-10T06:05:25;-2.16;90.02
70271;SHT31;57680;54.292;18.598;2022-12-10T06:07:51;-2.15;89.72
70271;SHT31;57680;54.292;18.598;2022-12-10T06:10:17;-2.15;89.62
70271;SHT31;57680;54.292;18.598;2022-12-10T06:12:42;-2.13;89.43
70271;SHT31;57680;54.292;18.598;2022-12-10T06:15:08;-2.15;89.37
70271;SHT31;57680;54.292;18.598;2022-12-10T06:17:34;-2.18;89.42
70271;SHT31;57680;54.292;18.598;2022-12-10T06:20:01;-2.19;89.32
70271;SHT31;57680;54.292;18.598;2022-12-10T06:22:26;-2.16;89.13
70271;SHT31;57680;54.292;18.598;2022-12-10T06:24:52;-2.19;88.71
70271;SHT31;57680;54.292;18.598;2022-12-10T06:27:18;-2.23;88.47
70271;SHT31;57680;54.292;18.598;2022-12-10T06:29:44;-2.21;88.87
70271;SHT31;57680;54.292;18.598;2022-12-10T06:32:09;-2.29;88.88
70271;SHT31;57680;54.292;18.598;2022-12-10T06:34:35;-2.35;88.52
70271;SHT31;57680;54.292;18.598;2022-12-10T06:37:00;-2.38;88.70
70271;SHT31;57680;54.292;18.598;2022-12-10T06:39:26;-2.36;88.72
70271;SHT31;57680;54.292;18.598;2022-12-10T06:41:51;-2.39;88.96
70271;SHT31;57680;54.292;18.598;2022-12-10T06:44:17;-2.43;89.78
70271;SHT31;57680;54.292;18.598;2022-12-10T06:46:42;-2.38;89.73
70271;SHT31;57680;54.292;18.598;2022-12-10T06:49:08;-2.38;89.63
70271;SHT31;57680;54.292;18.598;2022-12-10T06:51:33;-2.33;89.10
70271;SHT31;57680;54.292;18.598;2022-12-10T06:53:59;-2.36;89.10
70271;SHT31;57680;54.292;18.598;2022-12-10T06:56:25;-2.32;89.78
70271;SHT31;57680;54.292;18.598;2022-12-10T06:58:50;-2.28;89.67
70271;SHT31;57680;54.292;18.598;2022-12-10T07:01:21;-1.99;94.14
70271;SHT31;57680;54.292;18.598;2022-12-10T07:03:49;-2.04;89.13
70271;SHT31;57680;54.292;18.598;2022-12-10T07:06:15;-2.09;88.55
70271;SHT31;57680;54.292;18.598;2022-12-10T07:08:40;-2.18;88.37
70271;SHT31;57680;54.292;18.598;2022-12-10T07:11:08;-2.21;88.74
70271;SHT31;57680;54.292;18.598;2022-12-10T07:13:34;-2.11;88.72
70271;SHT31;57680;54.292;18.598;2022-12-10T07:16:00;-2.11;88.33
70271;SHT31;57680;54.292;18.598;2022-12-10T07:18:26;-2.11;88.35
70271;SHT31;57680;54.292;18.598;2022-12-10T07:20:52;-2.12;88.80
70271;SHT31;57680;54.292;18.598;2022-12-10T07:23:18;-2.09;88.48
70271;SHT31;57680;54.292;18.598;2022-12-10T07:25:44;-2.04;88.25
70271;SHT31;57680;54.292;18.598;2022-12-10T07:28:09;-2.06;87.84
70271;SHT31;57680;54.292;18.598;2022-12-10T07:30:35;-2.01;87.82
70271;SHT31;57680;54.292;18.598;2022-12-10T07:33:00;-2.06;88.11
70271;SHT31;57680;54.292;18.598;2022-12-10T07:35:26;-2.04;88.08
70271;SHT31;57680;54.292;18.598;2022-12-10T07:37:51;-1.98;87.75
70271;SHT31;57680;54.292;18.598;2022-12-10T07:40:17;-1.94;87.90
70271;SHT31;57680;54.292;18.598;2022-12-10T07:42:42;-1.90;87.94
70271;SHT31;57680;54.292;18.598;2022-12-10T07:45:08;-1.87;87.76
70271;SHT31;57680;54.292;18.598;2022-12-10T07:47:38;-1.88;87.33
70271;SHT31;57680;54.292;18.598;2022-12-10T07:50:05;-1.85;87.21
70271;SHT31;57680;54.292;18.598;2022-12-10T07:52:30;-1.87;87.38
70271;SHT31;57680;54.292;18.598;2022-12-10T07:54:56;-1.87;86.96
70271;SHT31;57680;54.292;18.598;2022-12-10T07:57:21;-1.85;87.13
70271;SHT31;57680;54.292;18.598;2022-12-10T07:59:47;-1.87;87.17
70271;SHT31;57680;54.292;18.598;2022-12-10T08:02:13;-1.87;86.72
70271;SHT31;57680;54.292;18.598;2022-12-10T08:04:38;-1.88;86.78
70271;SHT31;57680;54.292;18.598;2022-12-10T08:07:04;-1.85;87.22
70271;SHT31;57680;54.292;18.598;2022-12-10T08:09:30;-1.81;87.12
70271;SHT31;57680;54.292;18.598;2022-12-10T08:11:55;-1.75;87.57
70271;SHT31;57680;54.292;18.598;2022-12-10T08:14:21;-1.70;87.95
70271;SHT31;57680;54.292;18.598;2022-12-10T08:16:46;-1.64;88.21
70271;SHT31;57680;54.292;18.598;2022-12-10T08:19:12;-1.64;88.14
70271;SHT31;57680;54.292;18.598;2022-12-10T08:21:38;-1.66;87.57
70271;SHT31;57680;54.292;18.598;2022-12-10T08:24:03;-1.67;87.33
70271;SHT31;57680;54.292;18.598;2022-12-10T08:26:31;-1.68;86.95
70271;SHT31;57680;54.292;18.598;2022-12-10T08:28:57;-1.68;87.19
70271;SHT31;57680;54.292;18.598;2022-12-10T08:31:24;-1.67;87.16
70271;SHT31;57680;54.292;18.598;2022-12-10T08:33:50;-1.60;87.28
70271;SHT31;57680;54.292;18.598;2022-12-10T08:36:17;-1.57;86.91
70271;SHT31;57680;54.292;18.598;2022-12-10T08:38:43;-1.67;85.34
70271;SHT31;57680;54.292;18.598;2022-12-10T08:41:18;-1.74;85.54
70271;SHT31;57680;54.292;18.598;2022-12-10T08:43:43;-1.77;86.69
70271;SHT31;57680;54.292;18.598;2022-12-10T08:46:10;-1.67;87.18
70271;SHT31;57680;54.292;18.598;2022-12-10T08:48:36;-1.77;86.37
70271;SHT31;57680;54.292;18.598;2022-12-10T08:51:03;-1.80;86.96
70271;SHT31;57680;54.292;18.598;2022-12-10T08:53:28;-1.73;86.79
70271;SHT31;57680;54.292;18.598;2022-12-10T08:55:54;-1.67;86.87
70271;SHT31;57680;54.292;18.598;2022-12-10T08:58:20;-1.63;87.16
70271;SHT31;57680;54.292;18.598;2022-12-10T09:00:48;-1.59;87.29
70271;SHT31;57680;54.292;18.598;2022-12-10T09:03:13;-1.57;87.10
70271;SHT31;57680;54.292;18.598;2022-12-10T09:05:39;-1.47;86.97
70271;SHT31;57680;54.292;18.598;2022-12-10T09:08:05;-1.42;86.75
70271;SHT31;57680;54.292;18.598;2022-12-10T09:10:30;-1.43;85.96
70271;SHT31;57680;54.292;18.598;2022-12-10T09:12:56;-1.44;86.01
70271;SHT31;57680;54.292;18.598;2022-12-10T09:15:21;-1.38;86.58
70271;SHT31;57680;54.292;18.598;2022-12-10T09:17:47;-1.29;86.31
70271;SHT31;57680;54.292;18.598;2022-12-10T09:20:12;-1.28;85.18
70271;SHT31;57680;54.292;18.598;2022-12-10T09:22:38;-1.30;85.31
70271;SHT31;57680;54.292;18.598;2022-12-10T09:25:05;-1.29;85.00
70271;SHT31;57680;54.292;18.598;2022-12-10T09:27:31;-1.32;84.86
70271;SHT31;57680;54.292;18.598;2022-12-10T09:29:57;-1.35;84.62
70271;SHT31;57680;54.292;18.598;2022-12-10T09:32:22;-1.26;85.53
70271;SHT31;57680;54.292;18.598;2022-12-10T09:34:51;-1.15;85.46
70271;SHT31;57680;54.292;18.598;2022-12-10T09:37:16;-1.02;85.65
70271;SHT31;57680;54.292;18.598;2022-12-10T09:39:42;-0.93;85.03
70271;SHT31;57680;54.292;18.598;2022-12-10T09:47:17;-0.89;82.52
70271;SHT31;57680;54.292;18.598;2022-12-10T09:52:42;-0.13;81.68
70271;SHT31;57680;54.292;18.598;2022-12-10T09:55:20;-0.06;80.02
70271;SHT31;57680;54.292;18.598;2022-12-10T09:57:49;-0.02;79.60
70271;SHT31;57680;54.292;18.598;2022-12-10T10:00:23;0.05;79.60
70271;SHT31;57680;54.292;18.598;2022-12-10T10:02:51;0.11;79.10
70271;SHT31;57680;54.292;18.598;2022-12-10T10:07:53;0.12;78.82
70271;SHT31;57680;54.292;18.598;2022-12-10T10:10:26;0.17;78.80
70271;SHT31;57680;54.292;18.598;2022-12-10T10:12:55;0.19;79.01
70271;SHT31;57680;54.292;18.598;2022-12-10T10:15:27;0.32;78.93
70271;SHT31;57680;54.292;18.598;2022-12-10T10:17:56;0.38;78.48
70271;SHT31;57680;54.292;18.598;2022-12-10T10:20:23;0.46;78.09
70271;SHT31;57680;54.292;18.598;2022-12-10T10:22:49;0.49;77.40
70271;SHT31;57680;54.292;18.598;2022-12-10T10:25:18;0.48;76.88
70271;SHT31;57680;54.292;18.598;2022-12-10T10:27:45;0.44;76.96
70271;SHT31;57680;54.292;18.598;2022-12-10T10:30:17;0.41;76.84
70271;SHT31;57680;54.292;18.598;2022-12-10T10:32:55;0.38;76.52
70271;SHT31;57680;54.292;18.598;2022-12-10T10:35:32;0.38;77.10
70271;SHT31;57680;54.292;18.598;2022-12-10T10:38:01;0.44;77.46
70271;SHT31;57680;54.292;18.598;2022-12-10T10:40:53;0.52;77.76
70271;SHT31;57680;54.292;18.598;2022-12-10T10:43:23;0.53;77.28
70271;SHT31;57680;54.292;18.598;2022-12-10T10:46:21;0.52;77.12
70271;SHT31;57680;54.292;18.598;2022-12-10T10:48:47;0.53;77.39
70271;SHT31;57680;54.292;18.598;2022-12-10T10:53:52;0.76;77.46
70271;SHT31;57680;54.292;18.598;2022-12-10T10:56:21;0.75;76.98
70271;SHT31;57680;54.292;18.598;2022-12-10T10:59:27;0.83;76.68
70271;SHT31;57680;54.292;18.598;2022-12-10T11:01:55;0.87;76.66
70271;SHT31;57680;54.292;18.598;2022-12-10T11:04:53;1.00;76.40
70271;SHT31;57680;54.292;18.598;2022-12-10T11:07:23;1.10;76.19
70271;SHT31;57680;54.292;18.598;2022-12-10T11:10:27;1.21;76.29
70271;SHT31;57680;54.292;18.598;2022-12-10T11:13:06;1.19;75.93
70271;SHT31;57680;54.292;18.598;2022-12-10T11:15:39;1.24;75.52
70271;SHT31;57680;54.292;18.598;2022-12-10T11:18:29;1.30;76.24
70271;SHT31;57680;54.292;18.598;2022-12-10T11:21:16;1.31;75.67
70271;SHT31;57680;54.292;18.598;2022-12-10T11:23:44;1.27;75.94
70271;SHT31;57680;54.292;18.598;2022-12-10T11:27:32;1.48;75.46
70271;SHT31;57680;54.292;18.598;2022-12-10T11:35:14;1.40;74.42
70271;SHT31;57680;54.292;18.598;2022-12-10T11:38:00;1.19;75.48
70271;SHT31;57680;54.292;18.598;2022-12-10T11:57:34;0.68;77.63
70271;SHT31;57680;54.292;18.598;2022-12-10T12:00:17;0.68;77.78
70271;SHT31;57680;54.292;18.598;2022-12-10T12:08:56;0.48;78.27
70271;SHT31;57680;54.292;18.598;2022-12-10T12:11:38;0.44;78.69
70271;SHT31;57680;54.292;18.598;2022-12-10T12:14:19;0.42;78.86
70271;SHT31;57680;54.292;18.598;2022-12-10T12:17:12;0.39;79.41
70271;SHT31;57680;54.292;18.598;2022-12-10T12:19:48;0.39;79.68
70271;SHT31;57680;54.292;18.598;2022-12-10T12:25:10;0.38;79.87
70271;SHT31;57680;54.292;18.598;2022-12-10T12:27:51;0.33;79.69
70271;SHT31;57680;54.292;18.598;2022-12-10T12:30:20;0.26;79.78
70271;SHT31;57680;54.292;18.598;2022-12-10T12:33:10;0.21;79.92
70271;SHT31;57680;54.292;18.598;2022-12-10T12:35:50;0.17;79.75
70271;SHT31;57680;54.292;18.598;2022-12-10T12:41:03;0.21;80.20
70271;SHT31;57680;54.292;18.598;2022-12-10T12:43:42;0.14;80.12
70271;SHT31;57680;54.292;18.598;2022-12-10T12:46:43;0.08;80.68
70271;SHT31;57680;54.292;18.598;2022-12-10T12:49:15;0.00;80.94
70271;SHT31;57680;54.292;18.598;2022-12-10T12:51:56;0.00;81.18
70271;SHT31;57680;54.292;18.598;2022-12-10T12:54:23;-0.06;81.35
70271;SHT31;57680;54.292;18.598;2022-12-10T12:57:12;-0.06;81.45
70271;SHT31;57680;54.292;18.598;2022-12-10T13:00:10;-0.12;82.10
70271;SHT31;57680;54.292;18.598;2022-12-10T13:05:24;-0.13;83.12
70271;SHT31;57680;54.292;18.598;2022-12-10T13:10:50;-0.21;83.84
70271;SHT31;57680;54.292;18.598;2022-12-10T13:13:30;-0.29;84.15
70271;SHT31;57680;54.292;18.598;2022-12-10T13:15:56;-0.31;84.60
70271;SHT31;57680;54.292;18.598;2022-12-10T13:18:41;-0.33;85.06
70271;SHT31;57680;54.292;18.598;2022-12-10T13:21:26;-0.36;85.07
70271;SHT31;57680;54.292;18.598;2022-12-10T13:23:54;-0.38;85.40
70271;SHT31;57680;54.292;18.598;2022-12-10T13:26:33;-0.41;85.93
70271;SHT31;57680;54.292;18.598;2022-12-10T13:29:25;-0.44;86.18
70271;SHT31;57680;54.292;18.598;2022-12-10T13:32:02;-0.44;86.64
70271;SHT31;57680;54.292;18.598;2022-12-10T13:34:34;-0.49;86.79
70271;SHT31;57680;54.292;18.598;2022-12-10T13:37:16;-0.45;86.93
70271;SHT31;57680;54.292;18.598;2022-12-10T13:39:50;-0.47;86.68
70271;SHT31;57680;54.292;18.598;2022-12-10T13:48:15;-0.49;86.44
70271;SHT31;57680;54.292;18.598;2022-12-10T13:53:54;-0.54;86.63
70271;SHT31;57680;54.292;18.598;2022-12-10T13:56:45;-0.60;86.53
70271;SHT31;57680;54.292;18.598;2022-12-10T13:59:34;-0.62;86.63
70271;SHT31;57680;54.292;18.598;2022-12-10T14:07:57;-0.84;86.70
70271;SHT31;57680;54.292;18.598;2022-12-10T14:10:31;-0.84;86.92
70271;SHT31;57680;54.292;18.598;2022-12-10T14:12:58;-0.96;86.81
70271;SHT31;57680;54.292;18.598;2022-12-10T14:15:25;-1.03;86.96
70271;SHT31;57680;54.292;18.598;2022-12-10T14:18:00;-1.15;87.04
70271;SHT31;57680;54.292;18.598;2022-12-10T14:20:30;-1.22;86.98
70271;SHT31;57680;54.292;18.598;2022-12-10T14:22:57;-1.33;86.59
70271;SHT31;57680;54.292;18.598;2022-12-10T14:25:46;-1.38;86.93
70271;SHT31;57680;54.292;18.598;2022-12-10T14:28:15;-1.40;87.04
70271;SHT31;57680;54.292;18.598;2022-12-10T14:30:47;-1.46;87.30
70271;SHT31;57680;54.292;18.598;2022-12-10T14:33:16;-1.49;87.69
70271;SHT31;57680;54.292;18.598;2022-12-10T14:35:46;-1.51;88.07
70271;SHT31;57680;54.292;18.598;2022-12-10T14:38:25;-1.53;88.00
70271;SHT31;57680;54.292;18.598;2022-12-10T14:40:53;-1.56;87.80
70271;SHT31;57680;54.292;18.598;2022-12-10T14:43:24;-1.53;88.26
70271;SHT31;57680;54.292;18.598;2022-12-10T14:45:57;-1.59;88.24
70271;SHT31;57680;54.292;18.598;2022-12-10T14:48:23;-1.63;88.25
70271;SHT31;57680;54.292;18.598;2022-12-10T14:50:49;-1.66;88.51
70271;SHT31;57680;54.292;18.598;2022-12-10T14:53:26;-1.73;88.60
70271;SHT31;57680;54.292;18.598;2022-12-10T14:56:05;-1.70;88.83
70271;SHT31;57680;54.292;18.598;2022-12-10T14:59:03;-1.70;89.42
70271;SHT31;57680;54.292;18.598;2022-12-10T15:01:34;-1.73;89.03
70271;SHT31;57680;54.292;18.598;2022-12-10T15:04:03;-1.77;89.07
70271;SHT31;57680;54.292;18.598;2022-12-10T15:06:34;-1.85;88.88
70271;SHT31;57680;54.292;18.598;2022-12-10T15:09:01;-1.82;89.15
70271;SHT31;57680;54.292;18.598;2022-12-10T15:11:27;-1.85;89.12
70271;SHT31;57680;54.292;18.598;2022-12-10T15:13:57;-1.81;89.30
70271;SHT31;57680;54.292;18.598;2022-12-10T15:16:37;-1.78;89.19
70271;SHT31;57680;54.292;18.598;2022-12-10T15:19:25;-1.78;89.10
70271;SHT31;57680;54.292;18.598;2022-12-10T15:22:20;-1.73;89.02
70271;SHT31;57680;54.292;18.598;2022-12-10T15:24:46;-1.71;88.82
70271;SHT31;57680;54.292;18.598;2022-12-10T15:27:17;-1.71;89.33
70271;SHT31;57680;54.292;18.598;2022-12-10T15:29:43;-1.78;88.75
70271;SHT31;57680;54.292;18.598;2022-12-10T15:32:15;-1.85;88.96
70271;SHT31;57680;54.292;18.598;2022-12-10T15:34:53;-1.91;88.92
70271;SHT31;57680;54.292;18.598;2022-12-10T15:37:22;-1.95;88.85
70271;SHT31;57680;54.292;18.598;2022-12-10T15:39:52;-2.06;88.62
70271;SHT31;57680;54.292;18.598;2022-12-10T15:42:39;-2.23;88.08
70271;SHT31;57680;54.292;18.598;2022-12-10T15:45:19;-2.41;88.89
70271;SHT31;57680;54.292;18.598;2022-12-10T15:47:45;-2.62;88.62
70271;SHT31;57680;54.292;18.598;2022-12-10T15:50:11;-2.77;89.09
70271;SHT31;57680;54.292;18.598;2022-12-10T15:52:36;-2.81;88.60
70271;SHT31;57680;54.292;18.598;2022-12-10T15:55:02;-3.05;89.36
70271;SHT31;57680;54.292;18.598;2022-12-10T15:57:30;-3.11;89.88
70271;SHT31;57680;54.292;18.598;2022-12-10T15:59:59;-3.18;89.79
70271;SHT31;57680;54.292;18.598;2022-12-10T16:02:36;-3.27;89.47
70271;SHT31;57680;54.292;18.598;2022-12-10T16:05:21;-3.32;90.05
70271;SHT31;57680;54.292;18.598;2022-12-10T16:07:49;-3.39;90.76
70271;SHT31;57680;54.292;18.598;2022-12-10T16:10:18;-3.34;91.72
70271;SHT31;57680;54.292;18.598;2022-12-10T16:12:46;-3.19;92.19
70271;SHT31;57680;54.292;18.598;2022-12-10T16:15:21;-3.09;91.88
70271;SHT31;57680;54.292;18.598;2022-12-10T16:17:50;-2.98;92.44
70271;SHT31;57680;54.292;18.598;2022-12-10T16:20:23;-3.00;90.86
70271;SHT31;57680;54.292;18.598;2022-12-10T16:22:51;-3.00;90.47
70271;SHT31;57680;54.292;18.598;2022-12-10T16:25:19;-3.07;90.42
70271;SHT31;57680;54.292;18.598;2022-12-10T16:27:45;-3.15;90.37
70271;SHT31;57680;54.292;18.598;2022-12-10T16:30:21;-3.21;90.08
70271;SHT31;57680;54.292;18.598;2022-12-10T16:32:47;-3.31;90.71
70271;SHT31;57680;54.292;18.598;2022-12-10T16:35:13;-3.41;90.07
70271;SHT31;57680;54.292;18.598;2022-12-10T16:37:47;-3.43;90.64
70271;SHT31;57680;54.292;18.598;2022-12-10T16:40:16;-3.43;91.39
70271;SHT31;57680;54.292;18.598;2022-12-10T16:42:43;-3.31;92.04
70271;SHT31;57680;54.292;18.598;2022-12-10T16:45:16;-3.21;92.42
70271;SHT31;57680;54.292;18.598;2022-12-10T16:47:43;-3.08;91.56
70271;SHT31;57680;54.292;18.598;2022-12-10T16:50:10;-3.16;90.34
70271;SHT31;57680;54.292;18.598;2022-12-10T16:52:36;-3.25;89.75
70271;SHT31;57680;54.292;18.598;2022-12-10T16:55:02;-3.41;89.81
70271;SHT31;57680;54.292;18.598;2022-12-10T16:57:28;-3.51;90.01
70271;SHT31;57680;54.292;18.598;2022-12-10T16:59:53;-3.62;90.54